sensor_id;sensor_type;location;lat;lon;timestamp;temperature;humidity
54832;DHT22;40730;53.068;6.572;2022-10-16T00:01:33;12.30;99.90
54832;DHT22;40730;53.068;6.572;2022-10-16T00:04:00;12.20;99.90
54832;DHT22;40730;53.068;6.572;2022-10-16T00:06:27;12.20;99.90
54832;DHT22;40730;53.068;6.572;2022-10-16T00:08:53;12.20;99.90
54832;DHT22;40730;53.068;6.572;2022-10-16T00:11:24;12.20;99.90
54832;DHT22;40730;53.068;6.572;2022-10-16T00:13:54;12.30;99.90
54832;DHT22;40730;53.068;6.572;2022-10-16T00:16:20;12.20;99.90
54832;DHT22;40730;53.068;6.572;2022-10-16T00:18:46;12.20;99.90
54832;DHT22;40730;53.068;6.572;2022-10-16T00:21:18;12.20;99.90
54832;DHT22;40730;53.068;6.572;2022-10-16T00:23:44;12.20;99.90
54832;DHT22;40730;53.068;6.572;2022-10-16T00:26:14;12.20;99.90
54832;DHT22;40730;53.068;6.572;2022-10-16T00:28:39;12.20;99.90
54832;DHT22;40730;53.068;6.572;2022-10-16T00:31:07;12.30;99.90
54832;DHT22;40730;53.068;6.572;2022-10-16T00:33:34;12.20;99.90
54832;DHT22;40730;53.068;6.572;2022-10-16T00:36:00;12.20;99.90
54832;DHT22;40730;53.068;6.572;2022-10-16T00:38:26;12.20;99.90
54832;DHT22;40730;53.068;6.572;2022-10-16T00:40:51;12.20;99.90
54832;DHT22;40730;53.068;6.572;2022-10-16T00:43:38;12.20;99.90
54832;DHT22;40730;53.068;6.572;2022-10-16T00:54:03;12.30;99.90
54832;DHT22;40730;53.068;6.572;2022-10-16T00:56:29;12.30;99.90
54832;DHT22;40730;53.068;6.572;2022-10-16T00:58:55;12.40;99.90
54832;DHT22;40730;53.068;6.572;2022-10-16T01:01:20;12.40;99.90
54832;DHT22;40730;53.068;6.572;2022-10-16T01:03:46;12.40;99.90
54832;DHT22;40730;53.068;6.572;2022-10-16T01:06:26;12.40;99.90
54832;DHT22;40730;53.068;6.572;2022-10-16T01:10:03;12.40;99.90
54832;DHT22;40730;53.068;6.572;2022-10-16T01:14:44;12.50;99.90
54832;DHT22;40730;53.068;6.572;2022-10-16T01:17:28;12.50;99.90
54832;DHT22;40730;53.068;6.572;2022-10-16T01:25:47;12.60;99.90
54832;DHT22;40730;53.068;6.572;2022-10-16T01:28:06;12.70;99.90
54832;DHT22;40730;53.068;6.572;2022-10-16T01:30:35;12.70;99.90
54832;DHT22;40730;53.068;6.572;2022-10-16T01:33:13;12.70;99.90
54832;DHT22;40730;53.068;6.572;2022-10-16T01:35:46;12.70;99.90
54832;DHT22;40730;53.068;6.572;2022-10-16T01:38:20;12.70;99.90
54832;DHT22;40730;53.068;6.572;2022-10-16T01:40:51;12.80;99.90
54832;DHT22;40730;53.068;6.572;2022-10-16T01:43:22;12.80;99.90
54832;DHT22;40730;53.068;6.572;2022-10-16T01:45:49;12.80;99.90
54832;DHT22;40730;53.068;6.572;2022-10-16T01:48:18;12.80;99.90
54832;DHT22;40730;53.068;6.572;2022-10-16T01:50:57;12.70;99.90
54832;DHT22;40730;53.068;6.572;2022-10-16T01:53:24;12.70;99.90
54832;DHT22;40730;53.068;6.572;2022-10-16T01:55:52;12.70;99.90
54832;DHT22;40730;53.068;6.572;2022-10-16T01:58:20;12.70;99.90
54832;DHT22;40730;53.068;6.572;2022-10-16T02:00:47;12.70;99.90
54832;DHT22;40730;53.068;6.572;2022-10-16T02:03:16;12.80;99.90
54832;DHT22;40730;53.068;6.572;2022-10-16T02:05:53;12.70;99.90
54832;DHT22;40730;53.068;6.572;2022-10-16T02:08:19;12.70;99.90
54832;DHT22;40730;53.068;6.572;2022-10-16T02:10:45;12.70;99.90
54832;DHT22;40730;53.068;6.572;2022-10-16T02:13:19;12.70;99.90
54832;DHT22;40730;53.068;6.572;2022-10-16T02:15:45;12.70;99.90
54832;DHT22;40730;53.068;6.572;2022-10-16T02:18:11;12.70;99.90
54832;DHT22;40730;53.068;6.572;2022-10-16T02:20:43;12.70;99.90
54832;DHT22;40730;53.068;6.572;2022-10-16T02:23:19;12.60;99.90
54832;DHT22;40730;53.068;6.572;2022-10-16T02:25:50;12.60;99.90
54832;DHT22;40730;53.068;6.572;2022-10-16T02:28:19;12.70;99.90
54832;DHT22;40730;53.068;6.572;2022-10-16T02:30:50;12.70;99.90
54832;DHT22;40730;53.068;6.572;2022-10-16T02:33:19;12.70;99.90
54832;DHT22;40730;53.068;6.572;2022-10-16T02:35:47;12.70;99.90
54832;DHT22;40730;53.068;6.572;2022-10-16T02:38:15;12.70;99.90
54832;DHT22;40730;53.068;6.572;2022-10-16T02:40:41;12.80;99.90
54832;DHT22;40730;53.068;6.572;2022-10-16T02:43:08;12.80;99.90
54832;DHT22;40730;53.068;6.572;2022-10-16T02:45:34;12.80;99.90
54832;DHT22;40730;53.068;6.572;2022-10-16T02:47:59;12.80;99.90
54832;DHT22;40730;53.068;6.572;2022-10-16T02:50:25;12.80;99.90
54832;DHT22;40730;53.068;6.572;2022-10-16T02:52:51;12.80;99.90
54832;DHT22;40730;53.068;6.572;2022-10-16T02:55:16;12.80;99.90
54832;DHT22;40730;53.068;6.572;2022-10-16T02:57:42;12.90;99.90
54832;DHT22;40730;53.068;6.572;2022-10-16T03:00:10;12.90;99.90
54832;DHT22;40730;53.068;6.572;2022-10-16T03:02:37;12.90;99.90
54832;DHT22;40730;53.068;6.572;2022-10-16T03:05:03;12.80;99.90
54832;DHT22;40730;53.068;6.572;2022-10-16T03:07:28;12.90;99.90
54832;DHT22;40730;53.068;6.572;2022-10-16T03:09:54;12.90;99.90
54832;DHT22;40730;53.068;6.572;2022-10-16T03:12:21;12.90;99.90
54832;DHT22;40730;53.068;6.572;2022-10-16T03:14:47;12.90;99.90
54832;DHT22;40730;53.068;6.572;2022-10-16T03:17:12;12.90;99.90
54832;DHT22;40730;53.068;6.572;2022-10-16T03:19:38;12.90;99.90
54832;DHT22;40730;53.068;6.572;2022-10-16T03:22:04;12.90;99.90
54832;DHT22;40730;53.068;6.572;2022-10-16T03:24:30;12.90;99.90
54832;DHT22;40730;53.068;6.572;2022-10-16T03:26:55;12.90;99.90
54832;DHT22;40730;53.068;6.572;2022-10-16T03:29:21;12.90;99.90
54832;DHT22;40730;53.068;6.572;2022-10-16T03:31:46;12.80;99.90
54832;DHT22;40730;53.068;6.572;2022-10-16T03:34:14;12.80;99.90
54832;DHT22;40730;53.068;6.572;2022-10-16T03:36:40;12.80;99.90
54832;DHT22;40730;53.068;6.572;2022-10-16T03:39:05;12.80;99.90
54832;DHT22;40730;53.068;6.572;2022-10-16T03:41:31;12.80;99.90
54832;DHT22;40730;53.068;6.572;2022-10-16T03:43:57;12.80;99.90
54832;DHT22;40730;53.068;6.572;2022-10-16T03:46:22;12.80;99.90
54832;DHT22;40730;53.068;6.572;2022-10-16T03:48:48;12.80;99.90
54832;DHT22;40730;53.068;6.572;2022-10-16T03:51:13;12.80;99.90
54832;DHT22;40730;53.068;6.572;2022-10-16T03:53:39;12.70;99.90
54832;DHT22;40730;53.068;6.572;2022-10-16T03:56:05;12.70;99.90
54832;DHT22;40730;53.068;6.572;2022-10-16T03:58:30;12.70;99.90
54832;DHT22;40730;53.068;6.572;2022-10-16T04:00:56;12.70;99.90
54832;DHT22;40730;53.068;6.572;2022-10-16T04:03:21;12.70;99.90
54832;DHT22;40730;53.068;6.572;2022-10-16T04:05:48;12.60;99.90
54832;DHT22;40730;53.068;6.572;2022-10-16T04:08:14;12.70;99.90
54832;DHT22;40730;53.068;6.572;2022-10-16T04:10:39;12.60;99.90
54832;DHT22;40730;53.068;6.572;2022-10-16T04:13:05;12.60;99.90
54832;DHT22;40730;53.068;6.572;2022-10-16T04:15:31;12.70;99.90
54832;DHT22;40730;53.068;6.572;2022-10-16T04:17:56;12.70;99.90
54832;DHT22;40730;53.068;6.572;2022-10-16T04:20:22;12.70;99.90
54832;DHT22;40730;53.068;6.572;2022-10-16T04:22:48;12.70;99.90
54832;DHT22;40730;53.068;6.572;2022-10-16T04:25:13;12.70;99.90
54832;DHT22;40730;53.068;6.572;2022-10-16T04:27:39;12.60;99.90
54832;DHT22;40730;53.068;6.572;2022-10-16T04:30:05;12.60;99.90
54832;DHT22;40730;53.068;6.572;2022-10-16T04:32:31;12.60;99.90
54832;DHT22;40730;53.068;6.572;2022-10-16T04:34:56;12.60;99.90
54832;DHT22;40730;53.068;6.572;2022-10-16T04:37:26;12.60;99.90
54832;DHT22;40730;53.068;6.572;2022-10-16T04:39:53;12.60;99.90
54832;DHT22;40730;53.068;6.572;2022-10-16T04:42:19;12.60;99.90
54832;DHT22;40730;53.068;6.572;2022-10-16T04:44:44;12.50;99.90
54832;DHT22;40730;53.068;6.572;2022-10-16T04:47:10;12.50;99.90
54832;DHT22;40730;53.068;6.572;2022-10-16T04:49:35;12.60;99.90
54832;DHT22;40730;53.068;6.572;2022-10-16T04:52:01;12.60;99.90
54832;DHT22;40730;53.068;6.572;2022-10-16T04:54:26;12.60;99.90
54832;DHT22;40730;53.068;6.572;2022-10-16T04:56:52;12.60;99.90
54832;DHT22;40730;53.068;6.572;2022-10-16T04:59:19;12.60;99.90
54832;DHT22;40730;53.068;6.572;2022-10-16T05:01:45;12.60;99.90
54832;DHT22;40730;53.068;6.572;2022-10-16T05:04:11;12.70;99.90
54832;DHT22;40730;53.068;6.572;2022-10-16T05:06:37;12.60;99.90
54832;DHT22;40730;53.068;6.572;2022-10-16T05:09:04;12.70;99.90
54832;DHT22;40730;53.068;6.572;2022-10-16T05:11:30;12.70;99.90
54832;DHT22;40730;53.068;6.572;2022-10-16T05:13:56;12.70;99.90
54832;DHT22;40730;53.068;6.572;2022-10-16T05:16:22;12.70;99.90
54832;DHT22;40730;53.068;6.572;2022-10-16T05:18:47;12.80;99.90
54832;DHT22;40730;53.068;6.572;2022-10-16T05:21:13;12.80;99.90
54832;DHT22;40730;53.068;6.572;2022-10-16T05:23:39;12.80;99.90
54832;DHT22;40730;53.068;6.572;2022-10-16T05:26:04;12.80;99.90
54832;DHT22;40730;53.068;6.572;2022-10-16T05:28:30;12.80;99.90
54832;DHT22;40730;53.068;6.572;2022-10-16T05:30:56;12.80;99.90
54832;DHT22;40730;53.068;6.572;2022-10-16T05:33:24;12.80;99.90
54832;DHT22;40730;53.068;6.572;2022-10-16T05:35:51;12.80;99.90
54832;DHT22;40730;53.068;6.572;2022-10-16T05:38:18;12.70;99.90
54832;DHT22;40730;53.068;6.572;2022-10-16T05:40:50;12.70;99.90
54832;DHT22;40730;53.068;6.572;2022-10-16T05:43:16;12.70;99.90
54832;DHT22;40730;53.068;6.572;2022-10-16T05:45:41;12.70;99.90
54832;DHT22;40730;53.068;6.572;2022-10-16T05:48:07;12.70;99.90
54832;DHT22;40730;53.068;6.572;2022-10-16T05:50:33;12.70;99.90
54832;DHT22;40730;53.068;6.572;2022-10-16T05:52:58;12.70;99.90
54832;DHT22;40730;53.068;6.572;2022-10-16T05:55:24;12.70;99.90
54832;DHT22;40730;53.068;6.572;2022-10-16T05:57:49;12.70;99.90
54832;DHT22;40730;53.068;6.572;2022-10-16T06:00:15;12.80;99.90
54832;DHT22;40730;53.068;6.572;2022-10-16T06:02:40;12.80;99.90
54832;DHT22;40730;53.068;6.572;2022-10-16T06:05:06;12.80;99.90
54832;DHT22;40730;53.068;6.572;2022-10-16T06:07:35;12.80;99.90
54832;DHT22;40730;53.068;6.572;2022-10-16T06:10:01;12.80;99.90
54832;DHT22;40730;53.068;6.572;2022-10-16T06:12:26;12.80;99.90
54832;DHT22;40730;53.068;6.572;2022-10-16T06:14:52;12.80;99.90
54832;DHT22;40730;53.068;6.572;2022-10-16T06:17:18;12.80;99.90
54832;DHT22;40730;53.068;6.572;2022-10-16T06:19:43;12.80;99.90
54832;DHT22;40730;53.068;6.572;2022-10-16T06:22:09;12.80;99.90
54832;DHT22;40730;53.068;6.572;2022-10-16T06:24:35;12.80;99.90
54832;DHT22;40730;53.068;6.572;2022-10-16T06:27:00;12.90;99.90
54832;DHT22;40730;53.068;6.572;2022-10-16T06:29:26;12.80;99.90
54832;DHT22;40730;53.068;6.572;2022-10-16T06:31:51;12.80;99.90
54832;DHT22;40730;53.068;6.572;2022-10-16T06:34:18;12.80;99.90
54832;DHT22;40730;53.068;6.572;2022-10-16T06:36:43;12.70;99.90
54832;DHT22;40730;53.068;6.572;2022-10-16T06:39:09;12.70;99.90
54832;DHT22;40730;53.068;6.572;2022-10-16T06:41:35;12.70;99.90
54832;DHT22;40730;53.068;6.572;2022-10-16T06:44:01;12.80;99.90
54832;DHT22;40730;53.068;6.572;2022-10-16T06:46:27;12.80;99.90
54832;DHT22;40730;53.068;6.572;2022-10-16T06:48:53;12.90;99.90
54832;DHT22;40730;53.068;6.572;2022-10-16T06:51:20;13.00;99.90
54832;DHT22;40730;53.068;6.572;2022-10-16T06:53:49;13.00;99.90
54832;DHT22;40730;53.068;6.572;2022-10-16T06:56:23;13.00;99.90
54832;DHT22;40730;53.068;6.572;2022-10-16T06:58:49;13.00;99.90
54832;DHT22;40730;53.068;6.572;2022-10-16T07:01:16;13.10;99.90
54832;DHT22;40730;53.068;6.572;2022-10-16T07:03:44;13.10;99.90
54832;DHT22;40730;53.068;6.572;2022-10-16T07:06:11;13.10;99.90
54832;DHT22;40730;53.068;6.572;2022-10-16T07:08:39;13.10;99.90
54832;DHT22;40730;53.068;6.572;2022-10-16T07:11:07;13.10;99.90
54832;DHT22;40730;53.068;6.572;2022-10-16T07:13:37;13.20;99.90
54832;DHT22;40730;53.068;6.572;2022-10-16T07:16:07;13.20;99.90
54832;DHT22;40730;53.068;6.572;2022-10-16T07:18:34;13.20;99.90
54832;DHT22;40730;53.068;6.572;2022-10-16T07:21:07;13.30;99.90
54832;DHT22;40730;53.068;6.572;2022-10-16T07:23:33;13.30;99.90
54832;DHT22;40730;53.068;6.572;2022-10-16T07:25:58;13.40;99.90
54832;DHT22;40730;53.068;6.572;2022-10-16T07:28:24;13.40;99.90
54832;DHT22;40730;53.068;6.572;2022-10-16T07:30:50;13.40;99.90
54832;DHT22;40730;53.068;6.572;2022-10-16T07:33:16;13.40;99.90
54832;DHT22;40730;53.068;6.572;2022-10-16T07:35:53;13.30;99.90
54832;DHT22;40730;53.068;6.572;2022-10-16T07:38:20;13.30;99.90
54832;DHT22;40730;53.068;6.572;2022-10-16T07:40:46;13.30;99.90
54832;DHT22;40730;53.068;6.572;2022-10-16T07:43:12;13.20;99.90
54832;DHT22;40730;53.068;6.572;2022-10-16T07:45:46;13.20;99.90
54832;DHT22;40730;53.068;6.572;2022-10-16T07:48:11;13.20;99.90
54832;DHT22;40730;53.068;6.572;2022-10-16T07:50:37;13.30;99.90
54832;DHT22;40730;53.068;6.572;2022-10-16T07:53:03;13.40;99.90
54832;DHT22;40730;53.068;6.572;2022-10-16T07:55:28;13.60;99.90
54832;DHT22;40730;53.068;6.572;2022-10-16T07:57:54;13.70;99.90
54832;DHT22;40730;53.068;6.572;2022-10-16T08:00:20;13.90;99.90
54832;DHT22;40730;53.068;6.572;2022-10-16T08:02:46;14.10;99.90
54832;DHT22;40730;53.068;6.572;2022-10-16T08:05:11;14.50;99.90
54832;DHT22;40730;53.068;6.572;2022-10-16T08:07:37;14.90;99.90
54832;DHT22;40730;53.068;6.572;2022-10-16T08:10:02;15.40;99.90
54832;DHT22;40730;53.068;6.572;2022-10-16T08:12:29;15.50;99.90
54832;DHT22;40730;53.068;6.572;2022-10-16T08:14:54;15.40;99.90
54832;DHT22;40730;53.068;6.572;2022-10-16T08:17:20;15.40;99.90
54832;DHT22;40730;53.068;6.572;2022-10-16T08:19:46;15.10;99.90
54832;DHT22;40730;53.068;6.572;2022-10-16T08:22:13;15.10;99.90
54832;DHT22;40730;53.068;6.572;2022-10-16T08:24:38;15.30;99.90
54832;DHT22;40730;53.068;6.572;2022-10-16T08:27:04;15.20;99.90
54832;DHT22;40730;53.068;6.572;2022-10-16T08:29:30;15.10;99.90
54832;DHT22;40730;53.068;6.572;2022-10-16T08:31:55;15.30;99.90
54832;DHT22;40730;53.068;6.572;2022-10-16T08:34:21;15.90;99.90
54832;DHT22;40730;53.068;6.572;2022-10-16T08:36:46;16.40;99.90
54832;DHT22;40730;53.068;6.572;2022-10-16T08:39:12;16.70;99.90
54832;DHT22;40730;53.068;6.572;2022-10-16T08:45:07;16.80;99.90
54832;DHT22;40730;53.068;6.572;2022-10-16T08:47:49;17.30;99.90
54832;DHT22;40730;53.068;6.572;2022-10-16T08:50:27;17.70;99.90
54832;DHT22;40730;53.068;6.572;2022-10-16T08:52:54;17.70;99.90
54832;DHT22;40730;53.068;6.572;2022-10-16T08:55:43;17.60;99.90
54832;DHT22;40730;53.068;6.572;2022-10-16T08:58:22;17.50;99.90
54832;DHT22;40730;53.068;6.572;2022-10-16T09:00:53;17.60;99.90
54832;DHT22;40730;53.068;6.572;2022-10-16T09:03:42;17.70;99.90
54832;DHT22;40730;53.068;6.572;2022-10-16T09:14:47;17.50;99.90
54832;DHT22;40730;53.068;6.572;2022-10-16T09:22:36;16.80;99.90
54832;DHT22;40730;53.068;6.572;2022-10-16T09:25:11;16.60;99.90
54832;DHT22;40730;53.068;6.572;2022-10-16T09:27:37;16.60;99.90
54832;DHT22;40730;53.068;6.572;2022-10-16T09:30:25;16.50;99.90
54832;DHT22;40730;53.068;6.572;2022-10-16T09:32:53;16.50;99.90
54832;DHT22;40730;53.068;6.572;2022-10-16T09:35:45;16.60;99.90
54832;DHT22;40730;53.068;6.572;2022-10-16T09:40:47;16.60;99.90
54832;DHT22;40730;53.068;6.572;2022-10-16T09:43:40;16.70;99.90
54832;DHT22;40730;53.068;6.572;2022-10-16T09:46:19;16.60;99.90
54832;DHT22;40730;53.068;6.572;2022-10-16T09:48:50;16.60;99.90
54832;DHT22;40730;53.068;6.572;2022-10-16T09:51:37;16.80;99.90
54832;DHT22;40730;53.068;6.572;2022-10-16T09:56:36;16.60;99.90
54832;DHT22;40730;53.068;6.572;2022-10-16T09:59:22;16.50;99.90
54832;DHT22;40730;53.068;6.572;2022-10-16T10:01:54;16.40;99.90
54832;DHT22;40730;53.068;6.572;2022-10-16T10:04:22;16.30;99.90
54832;DHT22;40730;53.068;6.572;2022-10-16T10:06:51;16.40;99.90
54832;DHT22;40730;53.068;6.572;2022-10-16T10:09:27;16.40;99.90
54832;DHT22;40730;53.068;6.572;2022-10-16T10:14:50;16.50;99.90
54832;DHT22;40730;53.068;6.572;2022-10-16T10:17:27;16.70;99.90
54832;DHT22;40730;53.068;6.572;2022-10-16T10:19:55;16.80;99.90
54832;DHT22;40730;53.068;6.572;2022-10-16T10:22:31;17.30;99.90
54832;DHT22;40730;53.068;6.572;2022-10-16T10:27:49;17.40;99.90
54832;DHT22;40730;53.068;6.572;2022-10-16T10:30:27;17.50;99.90
54832;DHT22;40730;53.068;6.572;2022-10-16T10:47:33;20.40;99.90
54832;DHT22;40730;53.068;6.572;2022-10-16T10:50:26;20.90;98.30
54832;DHT22;40730;53.068;6.572;2022-10-16T10:53:03;21.30;95.30
54832;DHT22;40730;53.068;6.572;2022-10-16T10:55:39;20.90;93.00
54832;DHT22;40730;53.068;6.572;2022-10-16T11:06:19;20.60;90.80
54832;DHT22;40730;53.068;6.572;2022-10-16T11:11:40;21.50;91.40
54832;DHT22;40730;53.068;6.572;2022-10-16T11:14:19;22.00;88.70
54832;DHT22;40730;53.068;6.572;2022-10-16T11:20:02;22.40;82.40
54832;DHT22;40730;53.068;6.572;2022-10-16T11:25:16;22.50;79.60
54832;DHT22;40730;53.068;6.572;2022-10-16T11:28:06;23.20;78.40
54832;DHT22;40730;53.068;6.572;2022-10-16T11:31:02;23.90;76.10
54832;DHT22;40730;53.068;6.572;2022-10-16T11:33:29;24.30;75.20
54832;DHT22;40730;53.068;6.572;2022-10-16T11:39:20;22.00;75.20
54832;DHT22;40730;53.068;6.572;2022-10-16T11:42:19;21.10;78.00
54832;DHT22;40730;53.068;6.572;2022-10-16T11:50:53;19.80;79.50
54832;DHT22;40730;53.068;6.572;2022-10-16T11:55:58;19.00;82.40
54832;DHT22;40730;53.068;6.572;2022-10-16T11:58:37;18.50;83.90
54832;DHT22;40730;53.068;6.572;2022-10-16T12:07:02;18.40;88.10
54832;DHT22;40730;53.068;6.572;2022-10-16T12:09:33;18.80;88.80
54832;DHT22;40730;53.068;6.572;2022-10-16T12:11:59;20.00;86.00
54832;DHT22;40730;53.068;6.572;2022-10-16T12:14:35;20.10;85.60
54832;DHT22;40730;53.068;6.572;2022-10-16T12:17:22;20.70;84.20
54832;DHT22;40730;53.068;6.572;2022-10-16T12:20:20;21.50;82.50
54832;DHT22;40730;53.068;6.572;2022-10-16T12:22:56;21.80;80.70
54832;DHT22;40730;53.068;6.572;2022-10-16T12:25:37;21.80;77.50
54832;DHT22;40730;53.068;6.572;2022-10-16T12:28:25;20.90;78.50
54832;DHT22;40730;53.068;6.572;2022-10-16T12:31:00;20.90;76.90
54832;DHT22;40730;53.068;6.572;2022-10-16T12:33:29;20.60;76.70
54832;DHT22;40730;53.068;6.572;2022-10-16T12:35:56;20.70;76.70
54832;DHT22;40730;53.068;6.572;2022-10-16T12:38:26;21.20;75.50
54832;DHT22;40730;53.068;6.572;2022-10-16T12:40:59;20.70;73.80
54832;DHT22;40730;53.068;6.572;2022-10-16T12:48:41;18.40;79.20
54832;DHT22;40730;53.068;6.572;2022-10-16T13:21:34;19.30;81.00
54832;DHT22;40730;53.068;6.572;2022-10-16T13:32:48;17.60;86.50
54832;DHT22;40730;53.068;6.572;2022-10-16T13:35:22;17.30;88.50
54832;DHT22;40730;53.068;6.572;2022-10-16T13:37:49;17.30;90.20
54832;DHT22;40730;53.068;6.572;2022-10-16T13:40:23;18.40;89.60
54832;DHT22;40730;53.068;6.572;2022-10-16T13:42:50;19.60;84.40
54832;DHT22;40730;53.068;6.572;2022-10-16T13:45:24;20.70;81.70
54832;DHT22;40730;53.068;6.572;2022-10-16T13:48:04;21.60;77.70
54832;DHT22;40730;53.068;6.572;2022-10-16T13:50:30;22.20;75.00
54832;DHT22;40730;53.068;6.572;2022-10-16T13:53:06;22.60;73.00
54832;DHT22;40730;53.068;6.572;2022-10-16T13:55:31;23.10;70.40
54832;DHT22;40730;53.068;6.572;2022-10-16T13:58:13;23.10;68.50
54832;DHT22;40730;53.068;6.572;2022-10-16T14:00:51;22.60;66.60
54832;DHT22;40730;53.068;6.572;2022-10-16T14:03:18;21.80;66.70
54832;DHT22;40730;53.068;6.572;2022-10-16T14:05:51;20.80;68.50
54832;DHT22;40730;53.068;6.572;2022-10-16T14:08:17;20.80;70.00
54832;DHT22;40730;53.068;6.572;2022-10-16T14:10:46;20.70;69.50
54832;DHT22;40730;53.068;6.572;2022-10-16T14:13:17;20.30;70.30
54832;DHT22;40730;53.068;6.572;2022-10-16T14:15:47;19.60;71.90
54832;DHT22;40730;53.068;6.572;2022-10-16T14:18:21;19.20;74.20
54832;DHT22;40730;53.068;6.572;2022-10-16T14:20:48;19.00;74.70
54832;DHT22;40730;53.068;6.572;2022-10-16T14:23:29;18.50;75.40
54832;DHT22;40730;53.068;6.572;2022-10-16T14:28:40;17.70;77.80
54832;DHT22;40730;53.068;6.572;2022-10-16T14:33:49;17.10;81.80
54832;DHT22;40730;53.068;6.572;2022-10-16T14:36:16;16.90;83.20
54832;DHT22;40730;53.068;6.572;2022-10-16T14:39:05;16.70;85.10
54832;DHT22;40730;53.068;6.572;2022-10-16T14:41:32;16.50;86.20
54832;DHT22;40730;53.068;6.572;2022-10-16T14:44:05;16.40;87.00
54832;DHT22;40730;53.068;6.572;2022-10-16T14:46:42;16.30;87.60
54832;DHT22;40730;53.068;6.572;2022-10-16T14:51:41;16.20;90.00
54832;DHT22;40730;53.068;6.572;2022-10-16T14:54:08;16.10;90.60
54832;DHT22;40730;53.068;6.572;2022-10-16T14:56:52;16.00;91.30
54832;DHT22;40730;53.068;6.572;2022-10-16T14:59:35;15.90;91.80
54832;DHT22;40730;53.068;6.572;2022-10-16T15:04:54;15.70;92.70
54832;DHT22;40730;53.068;6.572;2022-10-16T15:07:20;15.60;93.40
54832;DHT22;40730;53.068;6.572;2022-10-16T15:09:45;15.60;94.10
54832;DHT22;40730;53.068;6.572;2022-10-16T15:12:11;15.60;94.90
54832;DHT22;40730;53.068;6.572;2022-10-16T15:14:37;15.60;96.40
54832;DHT22;40730;53.068;6.572;2022-10-16T15:17:03;15.50;97.50
54832;DHT22;40730;53.068;6.572;2022-10-16T15:19:29;15.40;98.60
54832;DHT22;40730;53.068;6.572;2022-10-16T15:21:55;15.40;99.90
54832;DHT22;40730;53.068;6.572;2022-10-16T15:24:20;15.30;99.90
54832;DHT22;40730;53.068;6.572;2022-10-16T15:26:46;15.30;99.90
54832;DHT22;40730;53.068;6.572;2022-10-16T15:29:12;15.20;99.90
54832;DHT22;40730;53.068;6.572;2022-10-16T15:31:38;15.20;99.90
54832;DHT22;40730;53.068;6.572;2022-10-16T15:34:09;15.10;99.90
54832;DHT22;40730;53.068;6.572;2022-10-16T15:36:36;15.10;99.90
54832;DHT22;40730;53.068;6.572;2022-10-16T15:39:04;15.00;99.90
54832;DHT22;40730;53.068;6.572;2022-10-16T15:41:29;15.00;99.90
54832;DHT22;40730;53.068;6.572;2022-10-16T15:43:55;14.90;99.90
54832;DHT22;40730;53.068;6.572;2022-10-16T15:46:22;14.80;99.90
54832;DHT22;40730;53.068;6.572;2022-10-16T15:48:49;14.70;99.90
54832;DHT22;40730;53.068;6.572;2022-10-16T15:51:16;14.70;99.90
54832;DHT22;40730;53.068;6.572;2022-10-16T15:53:42;14.70;99.90
54832;DHT22;40730;53.068;6.572;2022-10-16T15:56:10;14.60;99.90
54832;DHT22;40730;53.068;6.572;2022-10-16T15:58:36;14.50;99.90
54832;DHT22;40730;53.068;6.572;2022-10-16T16:01:02;14.50;99.90
54832;DHT22;40730;53.068;6.572;2022-10-16T16:03:30;14.40;99.90
54832;DHT22;40730;53.068;6.572;2022-10-16T16:05:56;14.40;99.90
54832;DHT22;40730;53.068;6.572;2022-10-16T16:08:22;14.30;99.90
54832;DHT22;40730;53.068;6.572;2022-10-16T16:11:01;14.30;99.90
54832;DHT22;40730;53.068;6.572;2022-10-16T16:13:27;14.20;99.90
54832;DHT22;40730;53.068;6.572;2022-10-16T16:15:53;14.20;99.90
54832;DHT22;40730;53.068;6.572;2022-10-16T16:18:18;14.10;99.90
54832;DHT22;40730;53.068;6.572;2022-10-16T16:20:44;14.10;99.90
54832;DHT22;40730;53.068;6.572;2022-10-16T16:23:10;14.00;99.90
54832;DHT22;40730;53.068;6.572;2022-10-16T16:25:36;13.90;99.90
54832;DHT22;40730;53.068;6.572;2022-10-16T16:28:01;13.80;99.90
54832;DHT22;40730;53.068;6.572;2022-10-16T16:30:27;13.70;99.90
54832;DHT22;40730;53.068;6.572;2022-10-16T16:32:52;13.60;99.90
54832;DHT22;40730;53.068;6.572;2022-10-16T16:35:18;13.50;99.90
54832;DHT22;40730;53.068;6.572;2022-10-16T16:37:44;13.40;99.90
54832;DHT22;40730;53.068;6.572;2022-10-16T16:40:09;13.30;99.90
54832;DHT22;40730;53.068;6.572;2022-10-16T16:42:35;13.20;99.90
54832;DHT22;40730;53.068;6.572;2022-10-16T16:45:00;13.10;99.90
54832;DHT22;40730;53.068;6.572;2022-10-16T16:47:26;13.20;99.90
54832;DHT22;40730;53.068;6.572;2022-10-16T16:49:52;13.00;99.90
54832;DHT22;40730;53.068;6.572;2022-10-16T16:52:17;12.90;99.90
54832;DHT22;40730;53.068;6.572;2022-10-16T16:54:43;12.80;99.90
54832;DHT22;40730;53.068;6.572;2022-10-16T16:57:10;12.80;99.90
54832;DHT22;40730;53.068;6.572;2022-10-16T16:59:36;12.70;99.90
54832;DHT22;40730;53.068;6.572;2022-10-16T17:02:02;12.60;99.90
54832;DHT22;40730;53.068;6.572;2022-10-16T17:04:28;12.50;99.90
54832;DHT22;40730;53.068;6.572;2022-10-16T17:06:54;12.40;99.90
54832;DHT22;40730;53.068;6.572;2022-10-16T17:09:21;12.30;99.90
54832;DHT22;40730;53.068;6.572;2022-10-16T17:11:46;12.30;99.90
54832;DHT22;40730;53.068;6.572;2022-10-16T17:14:14;12.20;99.90
54832;DHT22;40730;53.068;6.572;2022-10-16T17:16:40;12.10;99.90
54832;DHT22;40730;53.068;6.572;2022-10-16T17:19:13;12.10;99.90
54832;DHT22;40730;53.068;6.572;2022-10-16T17:21:40;12.00;99.90
54832;DHT22;40730;53.068;6.572;2022-10-16T17:24:06;11.90;99.90
54832;DHT22;40730;53.068;6.572;2022-10-16T17:26:32;11.90;99.90
54832;DHT22;40730;53.068;6.572;2022-10-16T17:29:00;11.90;99.90
54832;DHT22;40730;53.068;6.572;2022-10-16T17:31:28;11.80;99.90
54832;DHT22;40730;53.068;6.572;2022-10-16T17:33:54;11.80;99.90
54832;DHT22;40730;53.068;6.572;2022-10-16T17:36:21;11.70;99.90
54832;DHT22;40730;53.068;6.572;2022-10-16T17:38:47;11.70;99.90
54832;DHT22;40730;53.068;6.572;2022-10-16T17:43:40;11.60;99.90
54832;DHT22;40730;53.068;6.572;2022-10-16T17:46:06;11.60;99.90
54832;DHT22;40730;53.068;6.572;2022-10-16T17:48:37;11.60;99.90
54832;DHT22;40730;53.068;6.572;2022-10-16T17:51:07;11.60;99.90
54832;DHT22;40730;53.068;6.572;2022-10-16T17:53:34;11.60;99.90
54832;DHT22;40730;53.068;6.572;2022-10-16T17:56:08;11.60;99.90
54832;DHT22;40730;53.068;6.572;2022-10-16T17:58:35;11.60;99.90
54832;DHT22;40730;53.068;6.572;2022-10-16T18:01:01;11.60;99.90
54832;DHT22;40730;53.068;6.572;2022-10-16T18:03:27;11.60;99.90
54832;DHT22;40730;53.068;6.572;2022-10-16T18:05:54;11.50;99.90
54832;DHT22;40730;53.068;6.572;2022-10-16T18:08:23;11.50;99.90
54832;DHT22;40730;53.068;6.572;2022-10-16T18:10:49;11.50;99.90
54832;DHT22;40730;53.068;6.572;2022-10-16T18:13:16;11.50;99.90